Time;durP1;ratioP1;P1;durP2;ratioP2;P2;SDS_P1;SDS_P2;PMS_P1;PMS_P2;Temp;Humidity;BMP_temperature;BMP_pressure;BME280_temperature;BME280_humidity;BME280_pressure;Samples;Min_cycle;Max_cycle;Signal;HPM_P1;HPM_P2
2023/05/09 00:02:18;;;;;;;10.60;8.90;;;;;;;13.37;100.00;100926.06;5075307;28;20110;-66
2023/05/09 00:05:21;;;;;;;14.48;8.90;;;;;;;13.42;100.00;100945.03;5075271;28;20055;-66
2023/05/09 00:08:24;;;;;;;11.00;9.32;;;;;;;13.48;100.00;100936.81;5075002;28;20044;-66
2023/05/09 00:11:28;;;;;;;14.07;9.00;;;;;;;13.36;100.00;100937.50;5074772;28;20075;-66
2023/05/09 00:14:32;;;;;;;10.73;8.82;;;;;;;13.30;100.00;100936.06;5074834;28;20047;-66
2023/05/09 00:17:37;;;;;;;23.67;10.50;;;;;;;13.20;100.00;100934.88;5074749;28;20444;-66
2023/05/09 00:20:40;;;;;;;10.85;9.80;;;;;;;13.14;100.00;100929.97;5074537;28;20166;-66
2023/05/09 00:23:43;;;;;;;12.77;10.93;;;;;;;13.32;100.00;100933.38;5074621;28;20062;-66
2023/05/09 00:26:47;;;;;;;11.93;10.82;;;;;;;13.36;100.00;100921.75;5073763;28;20066;-66
2023/05/09 00:29:53;;;;;;;7.90;7.20;;;;;;;13.35;100.00;100922.69;5074594;28;20559;-66
2023/05/09 00:32:56;;;;;;;6.70;5.90;;;;;;;13.30;100.00;100919.47;5073659;28;20047;-66
2023/05/09 00:35:59;;;;;;;8.55;5.88;;;;;;;13.32;100.00;100922.88;5074261;28;20079;-66
2023/05/09 00:39:04;;;;;;;14.20;8.23;;;;;;;13.34;100.00;100915.75;5074390;28;20048;-67
2023/05/09 00:42:07;;;;;;;16.08;9.30;;;;;;;13.38;100.00;100912.00;5034500;28;20103;-67
2023/05/09 00:45:10;;;;;;;13.85;9.38;;;;;;;13.37;100.00;100905.91;5034315;28;20132;-66
2023/05/09 00:48:15;;;;;;;11.88;8.77;;;;;;;13.41;100.00;100914.47;5034330;28;20048;-67
2023/05/09 00:51:19;;;;;;;11.07;7.25;;;;;;;13.42;100.00;100900.38;5034211;28;20044;-67
2023/05/09 00:54:22;;;;;;;8.13;7.15;;;;;;;13.37;100.00;100900.66;5034286;28;20047;-67
2023/05/09 00:57:26;;;;;;;12.35;7.80;;;;;;;13.24;100.00;100900.53;5034235;28;20412;-67
2023/05/09 01:00:29;;;;;;;9.80;6.75;;;;;;;13.30;100.00;100893.22;5034112;28;20040;-67
2023/05/09 01:03:34;;;;;;;9.07;8.02;;;;;;;13.38;100.00;100891.84;5034180;28;20060;-67
2023/05/09 01:06:55;;;;;;;11.88;8.65;;;;;;;13.32;100.00;100879.06;5033244;28;20094;-67
2023/05/09 01:10:10;;;;;;;9.07;8.18;;;;;;;13.42;100.00;100871.50;5033971;28;20052;-66
2023/05/09 01:13:27;;;;;;;10.23;7.65;;;;;;;13.44;100.00;100864.38;5033373;28;20055;-66
2023/05/09 01:16:40;;;;;;;8.32;7.43;;;;;;;13.48;99.35;100865.88;5033001;28;20306;-67
2023/05/09 01:19:59;;;;;;;18.57;9.53;;;;;;;13.45;100.00;100860.81;5033803;28;20100;-66
2023/05/09 01:23:17;;;;;;;11.07;9.98;;;;;;;13.37;100.00;100857.78;5033770;28;20175;-66
2023/05/09 01:26:48;;;;;;;11.00;9.32;;;;;;;13.33;100.00;100856.28;5033939;28;20071;-67
2023/05/09 01:29:56;;;;;;;10.73;9.02;;;;;;;13.30;100.00;100856.44;5033684;28;20048;-66
2023/05/09 01:33:04;;;;;;;11.68;10.30;;;;;;;13.29;100.00;100846.88;5032766;28;20040;-66
2023/05/09 01:36:13;;;;;;;12.18;9.85;;;;;;;13.28;100.00;100853.94;5033407;28;20048;-67
2023/05/09 01:39:18;;;;;;;13.98;10.15;;;;;;;13.16;100.00;100854.59;5033545;28;20099;-67
2023/05/09 01:42:24;;;;;;;12.00;10.32;;;;;;;13.24;100.00;100848.00;5033406;28;20051;-66
2023/05/09 01:45:32;;;;;;;12.63;9.82;;;;;;;13.19;100.00;100842.13;5033472;28;20183;-67
2023/05/09 01:48:37;;;;;;;10.07;9.07;;;;;;;13.17;100.00;100846.63;5033504;28;20052;-67
2023/05/09 01:51:42;;;;;;;11.68;9.82;;;;;;;13.15;100.00;100843.25;5032481;28;20052;-67
2023/05/09 01:54:48;;;;;;;11.10;8.65;;;;;;;13.19;100.00;100855.25;5033227;28;20510;-67
2023/05/09 01:57:53;;;;;;;10.48;8.48;;;;;;;13.19;100.00;100842.13;5033177;28;20572;-66
2023/05/09 02:00:57;;;;;;;13.07;9.43;;;;;;;13.13;100.00;100853.00;5033128;28;20123;-67
2023/05/09 02:04:04;;;;;;;12.32;8.95;;;;;;;13.16;100.00;100850.19;5033063;28;20047;-66
2023/05/09 02:07:09;;;;;;;9.77;8.85;;;;;;;13.16;100.00;100858.06;5031946;28;20040;-67
2023/05/09 02:10:19;;;;;;;11.80;9.90;;;;;;;13.15;100.00;100847.66;5032900;28;20053;-67
2023/05/09 02:13:22;;;;;;;11.52;9.98;;;;;;;13.23;100.00;100848.06;5032858;28;20517;-66
2023/05/09 02:16:26;;;;;;;10.57;9.57;;;;;;;13.17;100.00;100846.63;5032143;28;20091;-66
2023/05/09 02:19:30;;;;;;;11.45;9.85;;;;;;;13.23;100.00;100830.50;5032747;28;20426;-66
2023/05/09 02:22:34;;;;;;;15.63;9.70;;;;;;;13.16;100.00;100834.44;5032771;28;20045;-67
2023/05/09 02:25:37;;;;;;;;;;;;;;;13.19;100.00;100834.25;5033485;28;20510;-66
2023/05/09 02:28:43;;;;;;;14.25;10.27;;;;;;;13.24;100.00;100831.34;5032862;28;20336;-67
2023/05/09 02:31:50;;;;;;;13.15;10.73;;;;;;;13.21;100.00;100829.78;5031950;28;20533;-67
2023/05/09 02:34:59;;;;;;;19.77;11.55;;;;;;;13.18;100.00;100826.47;5031540;28;20044;-66
2023/05/09 02:38:03;;;;;;;16.35;11.55;;;;;;;13.14;100.00;100820.53;5032607;28;20111;-66
2023/05/09 02:41:06;;;;;;;12.25;11.05;;;;;;;13.15;100.00;100824.03;5059644;28;20062;-66
2023/05/09 02:44:09;;;;;;;14.55;11.48;;;;;;;13.12;100.00;100817.19;5071642;28;20117;-67
2023/05/09 02:47:12;;;;;;;14.93;10.95;;;;;;;13.11;100.00;100820.72;5072403;28;20097;-66
2023/05/09 02:50:16;;;;;;;13.25;11.07;;;;;;;13.19;100.00;100817.66;5072256;28;20090;-66
2023/05/09 02:53:20;;;;;;;12.00;10.90;;;;;;;12.98;100.00;100828.44;5071306;28;20070;-66
2023/05/09 02:56:26;;;;;;;;;;;;;;;13.03;100.00;100829.06;5071121;28;20050;-66
2023/05/09 02:59:29;;;;;;;11.60;10.32;;;;;;;13.09;100.00;100819.97;5071870;28;20324;-66
2023/05/09 03:02:37;;;;;;;12.30;10.70;;;;;;;13.05;100.00;100815.84;5071735;28;20177;-66
2023/05/09 03:05:43;;;;;;;12.88;11.35;;;;;;;13.05;100.00;100810.59;5076235;28;20047;-68
2023/05/09 03:08:46;;;;;;;11.75;10.63;;;;;;;13.10;100.00;100813.78;5076076;28;20532;-67
2023/05/09 03:11:49;;;;;;;;;;;;;;;13.12;100.00;100811.09;5075433;28;20075;-65
2023/05/09 03:14:53;;;;;;;14.77;10.82;;;;;;;13.10;100.00;100813.78;5074778;28;20373;-67
2023/05/09 03:17:56;;;;;;;11.85;10.68;;;;;;;13.14;100.00;100804.78;5074671;28;20515;-67
2023/05/09 03:21:00;;;;;;;12.82;9.68;;;;;;;13.13;100.00;100797.00;5075904;28;20105;-67
2023/05/09 03:24:03;;;;;;;11.90;9.45;;;;;;;13.17;100.00;100801.97;5075278;28;20052;-67
2023/05/09 03:27:06;;;;;;;12.40;10.63;;;;;;;13.13;100.00;100800.47;5075726;28;20102;-66
2023/05/09 03:30:10;;;;;;;12.02;9.82;;;;;;;13.18;100.00;100789.72;5075806;28;20117;-67
2023/05/09 03:33:13;;;;;;;11.90;10.50;;;;;;;13.18;100.00;100785.31;5074767;28;20083;-67
2023/05/09 03:36:17;;;;;;;13.07;10.23;;;;;;;13.15;100.00;100784.66;5074782;28;20044;-67
2023/05/09 03:39:20;;;;;;;14.20;9.32;;;;;;;13.18;100.00;100779.22;5075137;28;20086;-67
2023/05/09 03:42:28;;;;;;;12.85;10.60;;;;;;;13.26;100.00;100780.47;5075056;28;20047;-67
2023/05/09 03:45:37;;;;;;;12.40;11.13;;;;;;;13.22;100.00;100773.69;5074908;28;20051;-67
2023/05/09 03:48:45;;;;;;;16.15;9.73;;;;;;;13.20;100.00;100772.06;5074723;28;20124;-67
2023/05/09 03:51:49;;;;;;;13.38;11.10;;;;;;;13.23;100.00;100771.91;5074531;28;20097;-67
2023/05/09 03:54:54;;;;;;;11.70;10.38;;;;;;;13.18;100.00;100769.56;5075408;28;20043;-68
2023/05/09 03:57:57;;;;;;;14.38;9.88;;;;;;;13.15;100.00;100772.38;5075411;28;20067;-67
2023/05/09 04:01:01;;;;;;;13.23;10.05;;;;;;;13.10;100.00;100777.03;5074432;28;20038;-68
2023/05/09 04:04:04;;;;;;;17.95;10.70;;;;;;;13.13;100.00;100771.59;5063026;28;20047;-69
2023/05/09 04:07:10;;;;;;;12.73;8.10;;;;;;;13.13;100.00;100768.13;5074275;28;20089;-68
2023/05/09 04:10:14;;;;;;;10.90;9.52;;;;;;;13.16;100.00;100765.34;5075085;28;20451;-68
2023/05/09 04:13:17;;;;;;;13.35;9.07;;;;;;;13.13;100.00;100763.72;5074083;28;20043;-68
2023/05/09 04:16:21;;;;;;;11.15;9.20;;;;;;;13.14;100.00;100767.19;5073355;28;20456;-78
2023/05/09 04:19:25;;;;;;;11.43;8.60;;;;;;;13.20;100.00;100767.66;5074175;28;20132;-69
2023/05/09 04:22:28;;;;;;;13.55;9.25;;;;;;;13.22;100.00;100765.81;5073959;28;20121;-69
2023/05/09 04:25:33;;;;;;;9.75;8.35;;;;;;;13.15;100.00;100769.75;5074049;28;20104;-68
2023/05/09 04:28:38;;;;;;;11.18;8.32;;;;;;;13.16;100.00;100765.34;5074565;28;20131;-68
2023/05/09 04:31:42;;;;;;;11.25;7.75;;;;;;;13.20;100.00;100761.56;5073861;28;20494;-69
2023/05/09 04:34:48;;;;;;;8.23;7.10;;;;;;;13.21;100.00;100769.38;5073715;28;20091;-68
2023/05/09 04:37:59;;;;;;;10.05;6.97;;;;;;;13.16;100.00;100765.34;5073757;28;20063;-68
2023/05/09 04:41:03;;;;;;;7.95;7.15;;;;;;;13.16;100.00;100757.44;5073238;28;20414;-68
2023/05/09 04:44:10;;;;;;;10.80;7.30;;;;;;;13.18;100.00;100761.69;5074572;28;20051;-69
2023/05/09 04:47:13;;;;;;;9.55;7.38;;;;;;;13.26;100.00;100756.00;5074618;28;20521;-68
2023/05/09 04:50:20;;;;;;;8.20;7.40;;;;;;;13.32;100.00;100739.03;5072277;28;20117;-68
2023/05/09 04:53:23;;;;;;;9.52;6.57;;;;;;;13.33;100.00;100738.09;5073122;28;20050;-68
2023/05/09 04:56:27;;;;;;;7.45;6.75;;;;;;;13.32;100.00;100744.28;5072613;28;20488;-69
2023/05/09 04:59:30;;;;;;;8.00;6.35;;;;;;;13.30;100.00;100740.91;5072654;28;20047;-69
2023/05/09 05:02:34;;;;;;;11.80;6.50;;;;;;;13.29;100.00;100740.06;5074049;28;20109;-68
2023/05/09 05:05:39;;;;;;;12.25;6.80;;;;;;;13.29;100.00;100734.81;5073102;28;20091;-67
2023/05/09 05:08:43;;;;;;;14.40;8.60;;;;;;;13.34;100.00;100731.91;5073990;28;20055;-68
2023/05/09 05:11:47;;;;;;;12.50;7.20;;;;;;;13.36;100.00;100732.66;5072203;28;20051;-70
2023/05/09 05:14:50;;;;;;;8.23;5.93;;;;;;;13.37;100.00;100727.31;5074072;28;20039;-70
2023/05/09 05:18:04;;;;;;;9.80;7.65;;;;;;;13.32;100.00;100726.75;5072954;28;20158;-80
2023/05/09 05:21:15;;;;;;;11.48;7.03;;;;;;;13.40;100.00;100726.25;5073054;28;20112;-69
2023/05/09 05:24:19;;;;;;;11.90;7.35;;;;;;;13.54;100.00;100723.66;5073007;28;20063;-69
2023/05/09 05:27:23;;;;;;;12.63;7.00;;;;;;;13.53;100.00;100721.97;5072348;28;20048;-73
2023/05/09 05:30:28;;;;;;;13.32;8.20;;;;;;;13.55;100.00;100725.34;5072395;28;20042;-72
2023/05/09 05:33:33;;;;;;;11.48;7.25;;;;;;;13.61;100.00;100721.50;5070325;28;20093;-73
2023/05/09 05:36:40;;;;;;;12.95;7.80;;;;;;;13.54;100.00;100728.06;5072392;28;20409;-70
2023/05/09 05:39:44;;;;;;;8.70;7.75;;;;;;;13.68;100.00;100725.41;5072351;28;20133;-69
2023/05/09 05:42:49;;;;;;;12.40;8.02;;;;;;;13.75;100.00;100725.88;5073402;28;20078;-70
2023/05/09 05:45:53;;;;;;;12.85;8.38;;;;;;;13.77;100.00;100726.63;5072701;28;20043;-70
2023/05/09 05:49:01;;;;;;;14.38;9.23;;;;;;;13.80;100.00;100718.56;5072485;28;20528;-70
2023/05/09 05:52:07;;;;;;;15.32;10.45;;;;;;;13.81;100.00;100722.88;5072500;28;20042;-69
2023/05/09 05:55:12;;;;;;;15.05;9.75;;;;;;;13.85;100.00;100721.75;5072470;28;20124;-69
2023/05/09 05:58:16;;;;;;;17.25;11.07;;;;;;;13.82;100.00;100716.69;5072638;28;20055;-68
2023/05/09 06:01:19;;;;;;;13.82;10.93;;;;;;;13.93;100.00;100720.31;5073662;28;20071;-68
2023/05/09 06:04:23;;;;;;;10.10;8.45;;;;;;;13.96;99.88;100714.88;5072288;28;20063;-68
2023/05/09 06:07:26;;;;;;;11.77;10.15;;;;;;;13.99;100.00;100707.75;5072901;28;20171;-68
2023/05/09 06:10:30;;;;;;;12.25;11.05;;;;;;;14.05;100.00;100708.19;5071603;28;20089;-68
2023/05/09 06:13:33;;;;;;;22.58;13.60;;;;;;;14.10;100.00;100700.00;5072045;28;20508;-69
2023/05/09 06:16:40;;;;;;;12.45;10.98;;;;;;;14.17;100.00;100694.25;5071716;28;20571;-69
2023/05/09 06:19:44;;;;;;;13.98;10.63;;;;;;;14.18;100.00;100698.56;5071566;28;20418;-68
2023/05/09 06:22:47;;;;;;;15.02;11.35;;;;;;;14.14;100.00;100685.72;5071756;28;20123;-68
2023/05/09 06:25:50;;;;;;;13.38;9.95;;;;;;;14.24;100.00;100694.69;5072738;28;20047;-68
2023/05/09 06:28:54;;;;;;;13.90;11.13;;;;;;;14.29;100.00;100684.72;5072938;28;20191;-68
2023/05/09 06:31:58;;;;;;;13.68;11.38;;;;;;;14.37;99.90;100684.22;5072535;28;20109;-68
2023/05/09 06:35:01;;;;;;;13.95;10.13;;;;;;;14.49;99.51;100674.69;5072546;28;20078;-68
2023/05/09 06:38:05;;;;;;;13.85;11.70;;;;;;;14.64;98.53;100673.69;5072456;28;20066;-69
2023/05/09 06:41:08;;;;;;;13.85;12.45;;;;;;;14.70;98.18;100662.75;5071670;28;20075;-69
2023/05/09 06:44:12;;;;;;;17.98;13.35;;;;;;;14.75;100.00;100655.41;5072824;28;20470;-68
2023/05/09 06:47:16;;;;;;;15.57;11.63;;;;;;;14.90;99.68;100653.53;5072501;28;20066;-68
2023/05/09 06:50:19;;;;;;;12.45;11.25;;;;;;;15.08;98.75;100648.75;5072800;28;20055;-68
2023/05/09 06:53:22;;;;;;;14.13;11.20;;;;;;;15.17;97.22;100644.66;5072573;28;20696;-68
2023/05/09 06:56:26;;;;;;;12.02;10.50;;;;;;;15.26;96.42;100644.03;5072516;28;20102;-70
2023/05/09 06:59:33;;;;;;;12.88;11.45;;;;;;;15.28;97.97;100647.38;5072384;28;20051;-69
2023/05/09 07:02:40;;;;;;;20.58;12.63;;;;;;;15.28;97.44;100634.19;5072259;28;20067;-69
2023/05/09 07:05:43;;;;;;;18.38;12.32;;;;;;;15.42;96.43;100638.50;5072447;28;20078;-69
2023/05/09 07:08:47;;;;;;;14.25;12.73;;;;;;;15.46;96.08;100630.28;5072381;28;20102;-70
2023/05/09 07:11:50;;;;;;;13.38;12.07;;;;;;;15.57;95.52;100621.59;5071768;28;20068;-67
2023/05/09 07:14:53;;;;;;;15.20;12.18;;;;;;;15.62;96.21;100618.63;5072416;28;20069;-68
2023/05/09 07:17:56;;;;;;;16.48;12.77;;;;;;;15.69;95.42;100609.38;5072280;28;20063;-68
2023/05/09 07:20:59;;;;;;;14.60;13.10;;;;;;;15.72;95.60;100615.25;5072420;28;20098;-68
2023/05/09 07:24:03;;;;;;;15.75;14.07;;;;;;;15.84;94.38;100602.16;5072216;28;20043;-68
2023/05/09 07:27:06;;;;;;;15.73;14.05;;;;;;;15.90;94.48;100597.25;5070743;28;20412;-68
2023/05/09 07:30:10;;;;;;;16.05;14.55;;;;;;;15.98;95.09;100600.16;5071642;28;20064;-68
2023/05/09 07:33:13;;;;;;;14.02;12.57;;;;;;;16.10;94.15;100592.31;5072162;28;20194;-68
2023/05/09 07:36:16;;;;;;;15.68;14.23;;;;;;;16.18;94.63;100592.59;5072387;28;20052;-67
2023/05/09 07:39:19;;;;;;;14.18;12.77;;;;;;;16.24;94.57;100582.41;5072342;28;20087;-67
2023/05/09 07:42:23;;;;;;;16.45;13.38;;;;;;;16.39;94.01;100587.47;5072328;28;20863;-68
2023/05/09 07:45:26;;;;;;;18.20;14.35;;;;;;;16.45;93.59;100579.94;5072031;28;20062;-68
2023/05/09 07:48:32;;;;;;;15.50;14.13;;;;;;;16.44;93.98;100573.00;5071915;28;20047;-67
2023/05/09 07:51:35;;;;;;;15.85;14.35;;;;;;;16.56;93.58;100565.06;5075184;28;20047;-67
2023/05/09 07:54:39;;;;;;;16.02;14.30;;;;;;;16.63;94.33;100561.03;5075885;28;20047;-68
2023/05/09 07:57:44;;;;;;;17.67;14.13;;;;;;;16.65;94.32;100561.72;5074618;28;20146;-68
2023/05/09 08:00:47;;;;;;;15.48;14.00;;;;;;;16.62;93.99;100556.69;5074733;28;20179;-68
2023/05/09 08:03:50;;;;;;;16.17;12.50;;;;;;;16.69;92.77;100542.91;5073288;28;20102;-68
2023/05/09 08:06:53;;;;;;;16.02;14.52;;;;;;;16.66;93.18;100550.25;5075650;28;20051;-68
2023/05/09 08:09:57;;;;;;;15.35;13.95;;;;;;;16.67;93.82;100538.72;5075656;28;20049;-68
2023/05/09 08:13:00;;;;;;;15.50;13.65;;;;;;;16.66;94.96;100534.41;5075448;28;20043;-68
2023/05/09 08:16:06;;;;;;;16.60;13.93;;;;;;;16.90;93.52;100529.84;5075218;28;20093;-68
2023/05/09 08:19:09;;;;;;;17.08;15.43;;;;;;;16.88;91.19;100531.78;5074446;28;20117;-68
2023/05/09 08:22:17;;;;;;;17.05;15.38;;;;;;;16.83;91.01;100531.31;5075408;28;20197;-67
2023/05/09 08:25:21;;;;;;;16.02;14.40;;;;;;;16.77;91.47;100515.09;5075363;28;20051;-67
2023/05/09 08:28:27;;;;;;;16.67;14.98;;;;;;;16.78;92.48;100519.41;5074981;28;20038;-68
2023/05/09 08:31:30;;;;;;;14.80;13.38;;;;;;;16.73;92.63;100511.84;5074935;28;20078;-68
2023/05/09 08:34:34;;;;;;;15.30;13.90;;;;;;;16.80;92.79;100514.84;5074919;28;20039;-67
2023/05/09 08:37:37;;;;;;;15.73;14.13;;;;;;;16.74;92.89;100506.41;5075038;28;20384;-68
2023/05/09 08:40:40;;;;;;;16.45;14.55;;;;;;;16.78;92.68;100508.84;5074673;28;20071;-68
2023/05/09 08:43:45;;;;;;;18.20;13.85;;;;;;;16.79;93.59;100503.47;5074729;28;20493;-68
2023/05/09 08:46:55;;;;;;;15.52;14.02;;;;;;;16.92;92.82;100496.25;5074773;28;20047;-67
2023/05/09 08:49:58;;;;;;;15.45;13.85;;;;;;;16.95;92.75;100492.53;5074466;28;20098;-67
2023/05/09 08:53:02;;;;;;;16.25;13.07;;;;;;;17.00;93.27;100485.06;5074530;28;20102;-67
2023/05/09 08:56:06;;;;;;;15.15;13.50;;;;;;;17.08;93.04;100484.47;5074448;28;20059;-68
2023/05/09 08:59:09;;;;;;;16.27;14.55;;;;;;;17.17;93.11;100481.91;5074405;28;20101;-68
2023/05/09 09:02:14;;;;;;;13.93;12.63;;;;;;;17.22;93.27;100484.19;5073911;28;20036;-67
2023/05/09 09:05:17;;;;;;;16.63;13.35;;;;;;;17.27;92.23;100478.53;5074109;28;20036;-67
2023/05/09 09:08:21;;;;;;;17.73;13.15;;;;;;;17.19;91.11;100481.78;5073591;28;20071;-67
2023/05/09 09:11:27;;;;;;;14.55;13.13;;;;;;;17.22;91.14;100483.34;5073705;28;20558;-68
2023/05/09 09:14:35;;;;;;;14.57;13.10;;;;;;;17.23;90.76;100474.44;5074121;28;20069;-68
2023/05/09 09:17:48;;;;;;;13.80;12.60;;;;;;;17.22;92.03;100464.84;5074186;28;20094;-67
2023/05/09 09:20:56;;;;;;;22.33;15.23;;;;;;;17.29;93.52;100466.84;5072742;28;20529;-67
2023/05/09 09:24:00;;;;;;;18.92;14.10;;;;;;;17.37;92.56;100455.69;5072682;28;20051;-67
2023/05/09 09:27:05;;;;;;;14.93;13.48;;;;;;;17.54;90.38;100454.28;5072800;28;20516;-67
2023/05/09 09:30:10;;;;;;;14.98;13.48;;;;;;;17.65;86.67;100441.03;5072681;28;20051;-67
2023/05/09 09:33:21;;;;;;;17.90;14.15;;;;;;;17.75;84.69;100434.00;5072473;28;20035;-68
2023/05/09 09:36:31;;;;;;;14.45;13.05;;;;;;;17.82;85.20;100439.63;5073823;28;20127;-67
2023/05/09 09:39:34;;;;;;;15.25;13.75;;;;;;;17.77;84.65;100429.47;5073277;28;20047;-68
2023/05/09 09:42:45;;;;;;;14.75;13.25;;;;;;;17.69;83.50;100426.56;5073460;28;20102;-68
2023/05/09 09:45:52;;;;;;;14.45;11.20;;;;;;;17.59;83.97;100430.97;5073657;28;20490;-67
2023/05/09 09:48:57;;;;;;;14.50;11.65;;;;;;;17.57;81.98;100420.50;5073243;28;20039;-67
2023/05/09 09:52:02;;;;;;;13.18;11.88;;;;;;;17.52;81.90;100416.59;5073295;28;20171;-67
2023/05/09 09:55:06;;;;;;;12.38;11.10;;;;;;;17.72;81.88;100421.03;5073458;28;20051;-67
2023/05/09 09:58:17;;;;;;;13.80;11.57;;;;;;;17.88;81.68;100416.16;5072662;28;20055;-67
2023/05/09 10:01:20;;;;;;;15.23;10.60;;;;;;;17.67;82.71;100413.47;5073075;28;20473;-67
2023/05/09 10:04:25;;;;;;;16.75;12.02;;;;;;;17.66;81.96;100406.50;5072387;28;20102;-67
2023/05/09 10:07:33;;;;;;;15.25;11.35;;;;;;;17.51;80.90;100401.66;5073146;28;20047;-67
2023/05/09 10:10:37;;;;;;;13.20;10.65;;;;;;;17.79;80.69;100403.72;5072952;28;20044;-67
2023/05/09 10:13:44;;;;;;;11.90;10.40;;;;;;;18.03;80.07;100397.31;5072390;28;20131;-67
2023/05/09 10:16:49;;;;;;;15.82;12.40;;;;;;;18.07;78.78;100391.63;5072911;28;20114;-68
2023/05/09 10:19:54;;;;;;;15.45;13.85;;;;;;;18.02;78.50;100388.50;5072914;28;20456;-68
2023/05/09 10:23:00;;;;;;;17.85;14.55;;;;;;;17.81;79.58;100398.31;5072323;28;20540;-68
2023/05/09 10:26:21;;;;;;;18.75;16.83;;;;;;;17.78;79.72;100394.09;5072765;28;20039;-67
2023/05/09 10:29:28;;;;;;;19.83;17.85;;;;;;;17.65;80.97;100385.50;5072510;28;20409;-68
2023/05/09 10:32:50;;;;;;;22.42;20.13;;;;;;;17.37;82.54;100395.72;5072649;28;20106;-67
2023/05/09 10:35:57;;;;;;;19.67;17.80;;;;;;;17.19;84.36;100387.50;5072696;28;20051;-67
2023/05/09 10:39:01;;;;;;;22.02;19.73;;;;;;;17.33;83.52;100383.75;5072859;28;20397;-67
2023/05/09 10:42:07;;;;;;;24.52;22.02;;;;;;;17.18;84.15;100385.84;5073022;28;20043;-67
2023/05/09 10:45:11;;;;;;;23.55;21.15;;;;;;;17.28;83.68;100383.25;5071656;28;20049;-67
2023/05/09 10:48:16;;;;;;;24.17;19.83;;;;;;;17.51;82.76;100372.59;5072797;28;20185;-67
2023/05/09 10:51:22;;;;;;;22.95;19.23;;;;;;;17.84;81.57;100375.06;5072547;28;20114;-67
2023/05/09 10:54:32;;;;;;;21.23;19.15;;;;;;;17.97;80.72;100377.50;5072464;28;20043;-67
2023/05/09 10:57:38;;;;;;;22.92;20.55;;;;;;;18.15;79.95;100364.47;5072491;28;20463;-67
2023/05/09 11:00:41;;;;;;;24.63;21.92;;;;;;;18.12;80.26;100355.03;5072472;28;20153;-68
2023/05/09 11:03:53;;;;;;;27.60;20.13;;;;;;;18.32;79.58;100349.81;5072474;28;20043;-68
2023/05/09 11:06:58;;;;;;;22.80;20.38;;;;;;;18.36;79.11;100345.91;5072764;28;20047;-68
2023/05/09 11:10:16;;;;;;;22.85;20.45;;;;;;;18.40;78.88;100343.81;5071661;28;20051;-67
2023/05/09 11:13:24;;;;;;;21.42;18.85;;;;;;;18.48;78.92;100330.75;5072395;28;20036;-70
2023/05/09 11:16:27;;;;;;;24.25;21.67;;;;;;;18.40;78.20;100327.94;5072363;28;20122;-68
2023/05/09 11:19:35;;;;;;;21.27;19.13;;;;;;;18.39;78.27;100320.97;5072434;28;20432;-70
2023/05/09 11:22:41;;;;;;;20.95;18.85;;;;;;;18.54;78.35;100320.47;5072245;28;20051;-70
2023/05/09 11:25:46;;;;;;;18.65;16.70;;;;;;;18.84;78.08;100307.28;5076048;28;20055;-68
2023/05/09 11:28:53;;;;;;;17.75;15.38;;;;;;;18.97;76.40;100305.19;5074920;28;20087;-69
2023/05/09 11:32:09;;;;;;;17.05;15.27;;;;;;;18.84;75.67;100297.53;5075248;28;20043;-68
2023/05/09 11:35:18;;;;;;;16.48;14.68;;;;;;;18.83;74.66;100287.09;5075606;28;20135;-70
2023/05/09 11:38:21;;;;;;;16.92;15.23;;;;;;;18.93;74.32;100283.44;5075515;28;20532;-69
2023/05/09 11:41:26;;;;;;;13.98;12.68;;;;;;;18.94;74.99;100274.50;5074318;28;20051;-70
2023/05/09 11:44:32;;;;;;;15.07;13.57;;;;;;;19.27;74.24;100267.94;5075579;28;20046;-71
2023/05/09 11:47:37;;;;;;;14.52;13.10;;;;;;;19.52;74.18;100255.00;5076014;28;20052;-70
2023/05/09 11:50:40;;;;;;;15.40;13.90;;;;;;;19.42;72.33;100255.03;5075707;28;20136;-68
2023/05/09 11:53:45;;;;;;;14.63;12.85;;;;;;;19.59;72.90;100249.97;5075578;28;20473;-69
2023/05/09 11:56:49;;;;;;;15.65;13.32;;;;;;;19.90;71.70;100239.97;5075724;28;20182;-70
2023/05/09 11:59:56;;;;;;;15.10;13.50;;;;;;;19.55;71.73;100238.81;5074942;28;20056;-68
2023/05/09 12:02:59;;;;;;;12.93;11.63;;;;;;;19.68;71.36;100236.69;5075425;28;20063;-67
2023/05/09 12:06:02;;;;;;;8.10;6.90;;;;;;;19.51;71.16;100232.13;5075336;28;20048;-67
2023/05/09 12:09:09;;;;;;;8.98;6.45;;;;;;;19.57;69.99;100230.72;5074666;28;20075;-67
2023/05/09 12:12:13;;;;;;;7.28;5.38;;;;;;;19.48;70.71;100227.13;5075253;28;20055;-67
2023/05/09 12:15:17;;;;;;;6.82;6.07;;;;;;;19.59;70.55;100220.78;5075379;28;20586;-67
2023/05/09 12:18:22;;;;;;;7.45;5.65;;;;;;;19.59;71.39;100213.69;5075442;28;20046;-67
2023/05/09 12:21:27;;;;;;;7.82;7.13;;;;;;;19.54;71.20;100205.34;5075234;28;20035;-66
2023/05/09 12:24:34;;;;;;;7.57;6.53;;;;;;;19.73;71.16;100189.34;5075117;28;20048;-69
2023/05/09 12:27:40;;;;;;;9.02;8.18;;;;;;;19.50;71.17;100203.97;5075063;28;20047;-68
2023/05/09 12:30:44;;;;;;;9.23;8.25;;;;;;;19.41;70.92;100188.91;5075175;28;20053;-68
2023/05/09 12:33:47;;;;;;;9.45;7.65;;;;;;;19.53;71.86;100182.44;5074974;28;20467;-68
2023/05/09 12:36:50;;;;;;;9.13;7.60;;;;;;;19.55;71.43;100174.34;5074284;28;20047;-68
2023/05/09 12:40:14;;;;;;;8.05;7.28;;;;;;;19.45;72.16;100169.06;5074131;28;20058;-68
2023/05/09 12:43:19;;;;;;;8.80;6.75;;;;;;;19.37;72.46;100171.59;5073753;28;20090;-68
2023/05/09 12:46:27;;;;;;;7.57;6.85;;;;;;;19.33;71.31;100175.53;5073596;28;20085;-68
2023/05/09 12:49:31;;;;;;;9.95;7.57;;;;;;;19.24;71.68;100156.03;5073509;28;20455;-68
2023/05/09 12:52:37;;;;;;;11.23;7.47;;;;;;;19.12;72.58;100163.34;5074857;28;20047;-69
2023/05/09 12:55:41;;;;;;;12.27;7.18;;;;;;;19.15;72.02;100168.34;5074394;28;20093;-68
2023/05/09 12:58:54;;;;;;;8.27;6.95;;;;;;;19.20;72.12;100165.25;5074044;28;20044;-68
2023/05/09 13:02:02;;;;;;;9.07;7.55;;;;;;;19.28;72.42;100158.25;5074296;28;20040;-68
2023/05/09 13:05:18;;;;;;;7.55;6.85;;;;;;;19.16;72.80;100163.88;5074215;28;20051;-69
2023/05/09 13:08:22;;;;;;;7.95;7.15;;;;;;;19.12;73.02;100158.03;5073011;28;20052;-68
2023/05/09 13:11:25;;;;;;;8.82;8.02;;;;;;;19.06;74.03;100148.00;5074122;28;20047;-69
2023/05/09 13:14:29;;;;;;;12.98;8.20;;;;;;;19.01;73.58;100144.94;5074285;28;20058;-69
2023/05/09 13:17:32;;;;;;;10.70;7.03;;;;;;;18.90;73.87;100142.47;5072918;28;20083;-76
2023/05/09 13:20:36;;;;;;;7.47;6.40;;;;;;;18.78;74.27;100142.63;5073865;28;20081;-69
2023/05/09 13:23:44;;;;;;;7.93;6.80;;;;;;;18.59;74.98;100140.81;5071504;28;20110;-69
2023/05/09 13:26:47;;;;;;;8.23;7.43;;;;;;;18.76;74.36;100139.31;5073042;28;20051;-69
2023/05/09 13:29:51;;;;;;;9.43;8.07;;;;;;;18.86;75.57;100136.63;5073407;28;20059;-68
2023/05/09 13:32:55;;;;;;;12.32;9.38;;;;;;;18.84;76.23;100135.09;5072979;28;20167;-70
2023/05/09 13:36:06;;;;;;;12.48;10.35;;;;;;;18.94;75.74;100127.97;5073472;28;20123;-68
2023/05/09 13:39:13;;;;;;;13.50;12.10;;;;;;;18.87;76.50;100119.75;5073671;28;20539;-69
2023/05/09 13:42:16;;;;;;;13.13;11.75;;;;;;;18.86;76.87;100120.75;5073556;28;20048;-69
2023/05/09 13:45:21;;;;;;;14.43;11.70;;;;;;;18.91;76.35;100112.34;5073394;28;20512;-69
2023/05/09 13:49:14;;;;;;;13.05;11.75;;;;;;;18.80;76.70;100111.56;5071751;28;20194;-69
2023/05/09 13:52:21;;;;;;;12.13;10.88;;;;;;;18.80;76.56;100106.25;5070588;28;20044;-70
2023/05/09 13:55:34;;;;;;;13.60;10.35;;;;;;;18.77;77.08;100106.53;5073383;28;20087;-69
2023/05/09 14:06:30;;;;;;;10.18;9.18;;;;;;;18.64;77.75;100091.91;5073022;28;20048;-70
2023/05/09 14:09:39;;;;;;;10.35;9.05;;;;;;;18.68;77.74;100088.00;5072095;28;20129;-68
2023/05/09 14:12:49;;;;;;;11.07;9.98;;;;;;;18.63;76.84;100077.81;5072488;28;20043;-68
2023/05/09 14:16:03;;;;;;;9.82;8.77;;;;;;;18.77;77.08;100073.94;5071808;28;20071;-70